createdAt,value
2018-04-27T00:01:53.787Z,2.90
2018-04-27T00:04:23.562Z,2.80
2018-04-27T00:06:53.427Z,2.60
2018-04-27T00:09:24.171Z,3.10
2018-04-27T00:11:54.449Z,2.97
2018-04-27T00:14:24.246Z,3.30
2018-04-27T00:16:55.536Z,2.60
2018-04-27T00:19:25.342Z,2.47
2018-04-27T00:21:55.046Z,3.10
2018-04-27T00:24:24.818Z,3.07
2018-04-27T00:26:54.936Z,3.10
2018-04-27T00:29:24.725Z,3.00
2018-04-27T00:31:54.532Z,3.07
2018-04-27T00:34:24.424Z,3.13
2018-04-27T00:36:54.543Z,3.37
2018-04-27T00:39:24.398Z,3.00
2018-04-27T00:41:54.274Z,2.97
2018-04-27T00:44:24.320Z,3.20
2018-04-27T00:46:54.092Z,3.20
2018-04-27T00:49:23.885Z,2.97
2018-04-27T00:51:53.748Z,3.30
2018-04-27T00:54:23.629Z,2.97
2018-04-27T00:56:53.705Z,3.13
2018-04-27T00:59:23.577Z,2.80
2018-04-27T01:01:53.320Z,3.47
2018-04-27T01:04:23.320Z,3.47
2018-04-27T01:06:53.167Z,3.43
2018-04-27T01:09:23.016Z,3.30
2018-04-27T01:11:52.815Z,3.07
2018-04-27T01:14:22.597Z,2.90
2018-04-27T01:16:53.149Z,2.80
2018-04-27T01:19:23.067Z,2.73
2018-04-27T01:21:53.026Z,3.40
2018-04-27T01:24:22.804Z,2.80
2018-04-27T01:26:52.618Z,3.10
2018-04-27T01:29:22.399Z,2.70
2018-04-27T01:31:52.512Z,2.87
2018-04-27T01:34:22.540Z,2.63
2018-04-27T01:36:53.211Z,2.20
2018-04-27T01:39:25.312Z,2.80
2018-04-27T01:41:55.254Z,2.57
2018-04-27T01:44:26.196Z,2.93
2018-04-27T01:46:56.168Z,2.87
2018-04-27T01:49:25.941Z,3.13
2018-04-27T01:51:55.773Z,2.40
2018-04-27T01:54:25.762Z,2.70
2018-04-27T01:56:55.954Z,2.30
2018-04-27T01:59:25.960Z,2.50
2018-04-27T02:01:55.949Z,2.73
2018-04-27T02:04:25.779Z,2.47
2018-04-27T02:06:55.734Z,2.73
2018-04-27T02:09:29.159Z,2.43
2018-04-27T02:11:59.138Z,2.43
2018-04-27T02:14:28.955Z,2.77
2018-04-27T02:16:59.591Z,2.40
2018-04-27T02:19:29.526Z,2.50
2018-04-27T02:22:01.228Z,2.57
2018-04-27T02:24:31.181Z,2.60
2018-04-27T02:27:00.997Z,2.70
2018-04-27T02:29:30.793Z,2.67
2018-04-27T02:32:00.590Z,2.77
2018-04-27T02:34:30.349Z,2.60
2018-04-27T02:37:00.264Z,2.60
2018-04-27T02:39:30.031Z,2.80
2018-04-27T02:42:00.172Z,2.50
2018-04-27T02:44:30.543Z,2.60
2018-04-27T02:47:00.789Z,2.63
2018-04-27T02:49:31.719Z,2.57
2018-04-27T02:52:01.544Z,2.70
2018-04-27T02:54:31.443Z,2.50
2018-04-27T02:57:02.337Z,2.83
2018-04-27T02:59:32.385Z,2.77
2018-04-27T03:02:02.316Z,3.17
2018-04-27T03:04:35.296Z,2.43
2018-04-27T03:07:06.285Z,2.93
2018-04-27T03:09:37.000Z,2.90
2018-04-27T03:12:13.071Z,3.20
2018-04-27T03:14:43.600Z,3.00
2018-04-27T03:17:13.554Z,3.63
2018-04-27T03:19:43.685Z,3.30
2018-04-27T03:22:13.587Z,3.30
2018-04-27T03:24:43.493Z,3.30
2018-04-27T03:27:13.311Z,3.57
2018-04-27T03:29:43.206Z,3.33
2018-04-27T03:32:13.207Z,3.77
2018-04-27T03:34:43.080Z,3.60
2018-04-27T03:37:14.119Z,3.30
2018-04-27T03:39:54.448Z,3.60
2018-04-27T03:42:26.968Z,3.47
2018-04-27T03:44:56.852Z,3.30
2018-04-27T03:47:26.604Z,3.20
2018-04-27T03:49:56.659Z,3.03
2018-04-27T03:52:26.477Z,3.50
2018-04-27T03:54:56.399Z,3.87
2018-04-27T03:57:26.255Z,3.80
2018-04-27T04:00:07.180Z,3.43
2018-04-27T04:02:48.766Z,3.80
2018-04-27T04:05:36.271Z,3.77
2018-04-27T04:08:06.001Z,3.83
2018-04-27T04:10:35.783Z,3.50
2018-04-27T04:13:05.658Z,3.50
2018-04-27T04:15:35.527Z,4.27
2018-04-27T04:18:05.556Z,3.73
2018-04-27T04:20:35.378Z,3.90
2018-04-27T04:23:05.902Z,4.03
2018-04-27T04:25:35.730Z,4.80
2018-04-27T04:28:05.559Z,4.83
2018-04-27T04:30:35.341Z,4.73
2018-04-27T04:33:05.113Z,4.80
2018-04-27T04:35:34.873Z,4.97
2018-04-27T04:38:04.888Z,5.17
2018-04-27T04:40:35.220Z,4.67
2018-04-27T04:43:05.120Z,4.63
2018-04-27T04:45:34.935Z,4.57
2018-04-27T04:48:05.490Z,4.57
2018-04-27T04:50:35.268Z,4.67
2018-04-27T04:53:05.087Z,4.67
2018-04-27T04:55:35.689Z,4.13
2018-04-27T04:58:05.566Z,5.17
2018-04-27T05:00:35.759Z,4.80
2018-04-27T05:03:05.588Z,4.00
2018-04-27T05:05:35.410Z,3.80
2018-04-27T05:08:05.196Z,4.43
2018-04-27T05:10:36.040Z,4.13
2018-04-27T05:13:05.847Z,4.50
2018-04-27T05:15:36.452Z,3.97
2018-04-27T05:18:23.944Z,4.17
2018-04-27T05:20:53.725Z,4.00
2018-04-27T05:23:23.628Z,4.17
2018-04-27T05:25:53.414Z,3.93
2018-04-27T05:28:23.224Z,3.80
2018-04-27T05:30:53.149Z,3.77
2018-04-27T05:33:23.004Z,4.13
2018-04-27T05:35:52.797Z,3.80
2018-04-27T05:38:22.624Z,4.10
2018-04-27T05:40:52.486Z,4.27
2018-04-27T05:43:22.273Z,4.73
2018-04-27T05:45:52.100Z,4.40
2018-04-27T05:48:21.991Z,4.57
2018-04-27T05:50:52.648Z,4.30
2018-04-27T05:53:22.599Z,3.77
2018-04-27T05:55:53.195Z,4.73
2018-04-27T05:58:23.311Z,3.90
2018-04-27T06:00:53.272Z,4.10
2018-04-27T06:03:24.068Z,4.60
2018-04-27T06:05:53.992Z,4.00
2018-04-27T06:08:23.940Z,4.20
2018-04-27T06:10:53.802Z,4.00
2018-04-27T06:13:23.630Z,4.90
2018-04-27T06:15:53.670Z,4.20
2018-04-27T06:18:23.960Z,4.07
2018-04-27T06:20:53.697Z,4.70
2018-04-27T06:23:23.475Z,4.13
2018-04-27T06:25:54.523Z,4.50
2018-04-27T06:28:24.341Z,4.70
2018-04-27T06:30:54.203Z,4.67
2018-04-27T06:33:23.974Z,4.77
2018-04-27T06:35:53.775Z,6.00
2018-04-27T06:38:23.735Z,5.37
2018-04-27T06:40:53.652Z,5.30
2018-04-27T06:43:23.633Z,4.57
2018-04-27T06:45:53.573Z,5.00
2018-04-27T06:48:23.510Z,4.60
2018-04-27T06:50:54.112Z,4.70
2018-04-27T06:53:24.070Z,4.47
2018-04-27T06:55:53.922Z,4.43
2018-04-27T06:58:23.712Z,4.40
2018-04-27T07:00:53.541Z,4.50
2018-04-27T07:03:23.347Z,4.40
2018-04-27T07:05:53.159Z,4.23
2018-04-27T07:08:23.006Z,5.03
2018-04-27T07:10:52.810Z,4.67
2018-04-27T07:13:22.636Z,4.80
2018-04-27T07:15:52.487Z,4.57
2018-04-27T07:18:22.356Z,4.33
2018-04-27T07:20:52.214Z,4.63
2018-04-27T07:23:22.099Z,4.40
2018-04-27T07:25:51.898Z,4.83
2018-04-27T07:28:21.877Z,4.97
2018-04-27T07:30:51.683Z,4.73
2018-04-27T07:33:21.568Z,5.20
2018-04-27T07:35:51.400Z,5.03
2018-04-27T07:38:21.281Z,4.67
2018-04-27T07:40:51.148Z,4.27
2018-04-27T07:43:20.982Z,4.53
2018-04-27T07:45:51.045Z,4.43
2018-04-27T07:48:21.130Z,4.60
2018-04-27T07:50:51.773Z,4.57
2018-04-27T07:53:21.584Z,4.63
2018-04-27T07:55:51.321Z,5.10
2018-04-27T07:58:21.249Z,4.80
2018-04-27T08:00:51.247Z,4.33
2018-04-27T08:03:21.281Z,4.47
2018-04-27T08:05:51.191Z,4.33
2018-04-27T08:08:21.109Z,4.43
2018-04-27T08:10:51.239Z,4.17
2018-04-27T08:13:22.370Z,4.43
2018-04-27T08:15:52.363Z,4.60
2018-04-27T08:18:22.270Z,4.10
2018-04-27T08:20:52.424Z,4.63
2018-04-27T08:23:23.260Z,4.67
2018-04-27T08:25:53.257Z,5.13
2018-04-27T08:28:23.177Z,4.97
2018-04-27T08:30:53.100Z,5.47
2018-04-27T08:33:23.116Z,5.60
2018-04-27T08:35:53.066Z,5.40
2018-04-27T08:38:22.961Z,5.27
2018-04-27T08:40:52.986Z,5.53
2018-04-27T08:43:23.609Z,5.10
2018-04-27T08:45:53.444Z,5.73
2018-04-27T08:48:23.335Z,6.30
2018-04-27T08:50:54.350Z,5.50
2018-04-27T08:53:24.446Z,5.53
2018-04-27T08:55:54.275Z,5.13
2018-04-27T08:58:24.115Z,5.80
2018-04-27T09:00:53.906Z,6.43
2018-04-27T09:03:25.084Z,5.67
2018-04-27T09:05:55.710Z,6.23
2018-04-27T09:08:25.565Z,6.30
2018-04-27T09:10:55.464Z,5.57
2018-04-27T09:13:25.351Z,6.97
2018-04-27T09:15:55.993Z,6.90
2018-04-27T09:18:26.001Z,6.63
2018-04-27T09:20:56.752Z,7.00
2018-04-27T09:23:26.576Z,6.70
2018-04-27T09:25:56.358Z,7.00
2018-04-27T09:28:26.126Z,6.47
2018-04-27T09:30:55.955Z,7.20
2018-04-27T09:33:25.694Z,7.17
2018-04-27T09:35:55.544Z,7.57
2018-04-27T09:38:25.421Z,6.33
2018-04-27T09:40:55.238Z,7.20
2018-04-27T09:43:25.898Z,7.47
2018-04-27T09:45:55.722Z,6.50
2018-04-27T09:48:26.349Z,6.40
2018-04-27T09:50:56.377Z,7.20
2018-04-27T09:53:26.986Z,6.73
2018-04-27T09:55:56.812Z,7.47
2018-04-27T09:58:26.637Z,7.27
2018-04-27T10:00:56.433Z,8.00
2018-04-27T10:03:26.299Z,7.70
2018-04-27T10:05:56.096Z,8.17
2018-04-27T10:08:25.946Z,7.90
2018-04-27T10:10:56.466Z,8.50
2018-04-27T10:13:27.084Z,9.80
2018-04-27T10:15:57.000Z,9.60
2018-04-27T10:18:26.801Z,8.53
2018-04-27T10:20:56.656Z,8.27
2018-04-27T10:23:26.631Z,8.87
2018-04-27T10:25:56.367Z,8.83
2018-04-27T10:28:26.144Z,7.77
2018-04-27T10:30:56.049Z,8.07
2018-04-27T10:33:25.773Z,7.63
2018-04-27T10:35:55.617Z,8.37
2018-04-27T10:38:25.418Z,7.70
2018-04-27T10:40:55.216Z,7.90
2018-04-27T10:43:25.054Z,8.60
2018-04-27T10:45:54.873Z,7.70
2018-04-27T10:48:25.011Z,8.40
2018-04-27T10:50:54.934Z,7.60
2018-04-27T10:53:24.702Z,8.53
2018-04-27T10:55:54.497Z,8.67
2018-04-27T10:58:24.242Z,8.07
2018-04-27T11:00:54.030Z,8.00
2018-04-27T11:03:23.917Z,8.87
2018-04-27T11:05:53.783Z,9.63
2018-04-27T11:08:23.787Z,8.73
2018-04-27T11:10:53.840Z,9.20
2018-04-27T11:13:23.925Z,9.20
2018-04-27T11:15:53.885Z,7.77
2018-04-27T11:18:23.872Z,8.30
2018-04-27T11:20:53.629Z,8.20
2018-04-27T11:23:23.485Z,8.53
2018-04-27T11:25:53.346Z,8.40
2018-04-27T11:28:23.228Z,8.90
2018-04-27T11:30:53.873Z,8.67
2018-04-27T11:33:23.757Z,8.77
2018-04-27T11:35:53.477Z,8.60
2018-04-27T11:38:23.269Z,8.97
2018-04-27T11:40:53.046Z,8.70
2018-04-27T11:43:22.848Z,8.93
2018-04-27T11:45:52.614Z,9.00
2018-04-27T11:48:22.537Z,9.37
2018-04-27T11:50:52.354Z,9.70
2018-04-27T11:53:22.301Z,10.20
2018-04-27T11:55:52.158Z,8.80
2018-04-27T11:58:22.300Z,8.57
2018-04-27T12:00:52.432Z,8.67
2018-04-27T12:03:22.335Z,8.57
2018-04-27T12:05:52.346Z,9.43
2018-04-27T12:08:22.178Z,9.60
2018-04-27T12:10:52.156Z,10.23
2018-04-27T12:13:21.933Z,10.03
2018-04-27T12:15:51.931Z,10.33
2018-04-27T12:18:21.852Z,10.07
2018-04-27T12:20:51.670Z,12.10
2018-04-27T12:23:22.184Z,11.77
2018-04-27T12:25:51.970Z,11.50
2018-04-27T12:28:22.119Z,12.43
2018-04-27T12:30:52.042Z,12.90
2018-04-27T12:33:21.850Z,13.53
2018-04-27T12:35:52.402Z,12.60
2018-04-27T12:38:22.233Z,14.53
2018-04-27T12:40:52.038Z,13.43
2018-04-27T12:43:21.845Z,14.00
2018-04-27T12:45:51.821Z,15.73
2018-04-27T12:48:21.670Z,15.30
2018-04-27T12:50:51.470Z,14.50
2018-04-27T12:53:21.306Z,14.87
2018-04-27T12:55:51.741Z,15.67
2018-04-27T12:58:21.975Z,15.17
2018-04-27T13:00:51.768Z,14.90
2018-04-27T13:03:21.539Z,15.20
2018-04-27T13:05:51.384Z,15.07
2018-04-27T13:08:21.532Z,16.73
2018-04-27T13:10:51.328Z,16.23
2018-04-27T13:13:21.130Z,17.43
2018-04-27T13:15:50.977Z,16.17
2018-04-27T13:18:20.762Z,16.50
2018-04-27T13:20:50.607Z,15.47
2018-04-27T13:23:20.474Z,16.87
2018-04-27T13:25:50.300Z,16.77
2018-04-27T13:28:20.363Z,16.23
2018-04-27T13:30:50.150Z,16.37
2018-04-27T13:33:20.000Z,16.13
2018-04-27T13:35:50.950Z,16.80
2018-04-27T13:38:21.642Z,15.90
2018-04-27T13:40:51.556Z,15.97
2018-04-27T13:43:22.813Z,16.13
2018-04-27T13:45:52.623Z,15.83
2018-04-27T13:48:22.571Z,14.27
2018-04-27T13:50:52.396Z,15.20
2018-04-27T13:53:22.323Z,14.37
2018-04-27T13:55:52.201Z,14.57
2018-04-27T13:58:22.104Z,14.43
2018-04-27T14:00:52.472Z,15.47
2018-04-27T14:03:22.532Z,14.10
2018-04-27T14:05:52.279Z,14.70
2018-04-27T14:08:22.069Z,12.97
2018-04-27T14:10:51.930Z,13.97
2018-04-27T14:13:21.816Z,13.80
2018-04-27T14:15:51.570Z,14.67
2018-04-27T14:18:21.581Z,13.77
2018-04-27T14:20:51.490Z,15.47
2018-04-27T14:23:21.317Z,15.53
2018-04-27T14:25:51.470Z,14.40
2018-04-27T14:28:21.305Z,14.53
2018-04-27T14:30:51.321Z,15.00
2018-04-27T14:33:21.151Z,14.20
2018-04-27T14:35:50.993Z,13.63
2018-04-27T14:38:20.978Z,14.03
2018-04-27T14:40:50.751Z,13.70
2018-04-27T14:43:20.565Z,13.93
2018-04-27T14:45:50.354Z,14.97
2018-04-27T14:48:20.209Z,14.60
2018-04-27T14:50:50.066Z,15.03
2018-04-27T14:53:19.948Z,12.93
2018-04-27T14:55:49.803Z,14.27
2018-04-27T14:58:20.311Z,13.93
2018-04-27T15:00:52.498Z,12.23
2018-04-27T15:03:22.863Z,11.57
2018-04-27T15:05:53.223Z,11.50
2018-04-27T15:08:24.318Z,10.80
2018-04-27T15:10:55.006Z,12.07
2018-04-27T15:13:25.536Z,12.67
2018-04-27T15:15:56.093Z,11.40
2018-04-27T15:18:26.437Z,12.37
2018-04-27T15:20:56.613Z,12.83
2018-04-27T15:23:28.524Z,14.67
2018-04-27T15:25:58.377Z,15.20
2018-04-27T15:28:28.149Z,14.13
2018-04-27T15:30:58.012Z,13.20
2018-04-27T15:33:27.802Z,13.80
2018-04-27T15:35:57.736Z,13.63
2018-04-27T15:38:27.532Z,14.00
2018-04-27T15:40:57.356Z,15.37
2018-04-27T15:43:27.141Z,15.77
2018-04-27T15:45:57.011Z,14.00
2018-04-27T15:48:27.466Z,11.67
2018-04-27T15:50:57.176Z,12.10
2018-04-27T15:53:26.990Z,12.03
2018-04-27T15:55:56.821Z,11.47
2018-04-27T15:58:26.561Z,12.00
2018-04-27T16:00:56.298Z,12.13
2018-04-27T16:03:26.190Z,11.83
2018-04-27T16:05:56.014Z,11.73
2018-04-27T16:08:25.862Z,10.20
2018-04-27T16:10:55.621Z,11.13
2018-04-27T16:13:36.054Z,12.50
2018-04-27T16:16:05.817Z,11.30
2018-04-27T16:18:35.690Z,11.60
2018-04-27T16:21:05.522Z,11.53
2018-04-27T16:23:35.284Z,12.50
2018-04-27T16:26:05.081Z,12.10
2018-04-27T16:28:34.857Z,13.20
2018-04-27T16:31:04.664Z,13.07
2018-04-27T16:33:34.568Z,15.03
2018-04-27T16:36:05.649Z,14.37
2018-04-27T16:38:35.551Z,14.97
2018-04-27T16:41:05.563Z,15.13
2018-04-27T16:43:35.490Z,15.50
2018-04-27T16:46:05.283Z,16.00
2018-04-27T16:48:35.078Z,16.17
2018-04-27T16:51:05.053Z,15.93
2018-04-27T16:53:35.409Z,16.37
2018-04-27T16:56:05.798Z,15.97
2018-04-27T16:58:36.560Z,16.73
2018-04-27T17:01:06.458Z,16.13
2018-04-27T17:03:36.486Z,15.90
2018-04-27T17:06:06.295Z,15.83
2018-04-27T17:08:36.131Z,15.43
2018-04-27T17:11:07.538Z,13.13
2018-04-27T17:13:37.487Z,13.40
2018-04-27T17:16:07.296Z,13.33
2018-04-27T17:18:37.225Z,11.87
2018-04-27T17:21:07.260Z,11.13
2018-04-27T17:23:37.120Z,11.73
2018-04-27T17:26:06.944Z,11.40
2018-04-27T17:28:36.871Z,10.53
2018-04-27T17:31:06.867Z,11.07
2018-04-27T17:33:36.710Z,9.63
2018-04-27T17:36:06.595Z,9.93
2018-04-27T17:38:36.451Z,9.77
2018-04-27T17:41:06.215Z,9.73
2018-04-27T17:43:35.968Z,9.47
2018-04-27T17:46:05.784Z,8.13
2018-04-27T17:48:35.706Z,7.53
2018-04-27T17:51:06.455Z,8.97
2018-04-27T17:53:36.216Z,9.47
2018-04-27T17:56:06.864Z,9.80
2018-04-27T17:58:36.673Z,9.63
2018-04-27T18:01:07.044Z,9.57
2018-04-27T18:03:36.842Z,8.63
2018-04-27T18:06:06.716Z,8.97
2018-04-27T18:08:36.521Z,8.20
2018-04-27T18:11:06.349Z,8.67
2018-04-27T18:13:36.413Z,7.60
2018-04-27T18:16:06.340Z,7.87
2018-04-27T18:18:36.298Z,6.97
2018-04-27T18:21:06.370Z,7.57
2018-04-27T18:23:36.380Z,7.07
2018-04-27T18:26:06.144Z,8.57
2018-04-27T18:28:35.912Z,6.60
2018-04-27T18:31:05.810Z,5.73
2018-04-27T18:33:36.014Z,5.93
2018-04-27T18:36:06.057Z,4.73
2018-04-27T18:38:35.900Z,4.70
2018-04-27T18:41:05.750Z,4.53
2018-04-27T18:43:35.605Z,4.30
2018-04-27T18:46:05.571Z,4.30
2018-04-27T18:48:35.828Z,3.97
2018-04-27T18:51:05.801Z,3.93
2018-04-27T18:53:36.866Z,3.70
2018-04-27T18:56:08.097Z,3.47
2018-04-27T18:58:37.923Z,3.80
2018-04-27T19:01:07.731Z,3.77
2018-04-27T19:03:37.588Z,3.53
2018-04-27T19:06:07.902Z,4.00
2018-04-27T19:08:38.084Z,3.93
2018-04-27T19:11:07.880Z,3.60
2018-04-27T19:13:37.675Z,4.00
2018-04-27T19:16:07.495Z,4.27
2018-04-27T19:18:37.507Z,3.73
2018-04-27T19:21:07.562Z,3.33
2018-04-27T19:23:40.420Z,4.33
2018-04-27T19:26:10.442Z,4.17
2018-04-27T19:28:40.250Z,4.37
2018-04-27T19:31:10.179Z,3.83
2018-04-27T19:33:40.025Z,4.43
2018-04-27T19:36:09.840Z,4.13
2018-04-27T19:38:39.677Z,3.73
2018-04-27T19:41:09.652Z,4.17
2018-04-27T19:43:39.429Z,3.77
2018-04-27T19:46:09.416Z,3.50
2018-04-27T19:48:39.476Z,3.63
2018-04-27T19:51:09.517Z,3.40
2018-04-27T19:53:39.477Z,3.50
2018-04-27T19:56:09.373Z,3.23
2018-04-27T19:58:40.221Z,3.07
2018-04-27T20:01:10.444Z,2.83
2018-04-27T20:03:40.345Z,2.70
2018-04-27T20:06:10.141Z,3.20
2018-04-27T20:08:40.512Z,3.00
2018-04-27T20:11:10.565Z,3.07
2018-04-27T20:13:42.223Z,2.90
2018-04-27T20:16:12.063Z,2.60
2018-04-27T20:18:42.014Z,2.60
2018-04-27T20:21:11.781Z,2.90
2018-04-27T20:23:41.625Z,2.87
2018-04-27T20:26:12.601Z,2.60
2018-04-27T20:28:42.760Z,2.40
2018-04-27T20:31:12.672Z,2.43
2018-04-27T20:33:42.710Z,2.10
2018-04-27T20:36:12.524Z,2.13
2018-04-27T20:38:43.134Z,2.30
2018-04-27T20:41:17.004Z,2.60
2018-04-27T20:43:47.195Z,2.43
2018-04-27T20:46:19.144Z,2.80
2018-04-27T20:48:49.429Z,2.60
2018-04-27T20:51:22.194Z,2.60
2018-04-27T20:53:53.153Z,2.87
2018-04-27T20:56:24.314Z,2.50
2018-04-27T20:58:54.630Z,2.80
2018-04-27T21:01:24.828Z,2.80
2018-04-27T21:03:56.992Z,2.43
2018-04-27T21:06:27.387Z,2.37
2018-04-27T21:08:57.204Z,2.37
2018-04-27T21:11:28.457Z,2.60
2018-04-27T21:13:58.238Z,2.30
2018-04-27T21:16:28.081Z,1.90
2018-04-27T21:18:57.949Z,2.43
2018-04-27T21:21:27.911Z,1.80
2018-04-27T21:23:57.812Z,1.97
2018-04-27T21:26:29.962Z,1.83
2018-04-27T21:29:00.173Z,2.03
2018-04-27T21:31:30.126Z,1.80
2018-04-27T21:34:00.911Z,1.50
2018-04-27T21:36:32.092Z,1.50
2018-04-27T21:42:10.894Z,1.43
2018-04-27T21:44:46.469Z,1.57
2018-04-27T21:47:35.007Z,1.47
2018-04-27T21:50:08.945Z,1.33
2018-04-27T21:52:57.317Z,1.47
2018-04-27T21:55:27.860Z,1.47
2018-04-27T21:58:08.105Z,1.30
2018-04-27T22:00:37.950Z,1.00
2018-04-27T22:03:16.478Z,1.30
2018-04-27T22:06:06.712Z,1.20
2018-04-27T22:08:54.495Z,1.30
2018-04-27T22:11:30.572Z,1.10
2018-04-27T22:14:00.346Z,1.10
2018-04-27T22:16:46.588Z,1.10
2018-04-27T22:19:17.932Z,0.80
2018-04-27T22:21:48.885Z,1.00
2018-04-27T22:24:37.107Z,1.23
2018-04-27T22:27:08.288Z,1.40
2018-04-27T22:29:52.112Z,1.00
2018-04-27T22:32:26.027Z,1.17
2018-04-27T22:34:59.074Z,1.27
2018-04-27T22:37:30.112Z,0.93
2018-04-27T22:40:08.628Z,1.00
2018-04-27T22:42:57.048Z,1.20
2018-04-27T22:45:31.688Z,1.03
2018-04-27T22:48:30.693Z,0.90
2018-04-27T22:51:01.013Z,1.30
2018-04-27T22:53:51.271Z,1.00
2018-04-27T22:56:36.837Z,1.00
2018-04-27T22:59:07.016Z,0.93
2018-04-27T23:01:36.788Z,1.17
2018-04-27T23:04:06.863Z,1.43
2018-04-27T23:06:36.817Z,1.30
2018-04-27T23:09:07.544Z,1.00
2018-04-27T23:11:38.544Z,1.30
2018-04-27T23:14:08.640Z,1.00
2018-04-27T23:16:38.438Z,1.77
2018-04-27T23:19:10.149Z,1.23
2018-04-27T23:21:40.333Z,1.50
2018-04-27T23:24:11.275Z,1.30
2018-04-27T23:26:41.867Z,1.80
2018-04-27T23:29:11.723Z,1.40
2018-04-27T23:31:43.812Z,1.77
2018-04-27T23:34:13.711Z,1.60
2018-04-27T23:36:43.470Z,1.47
2018-04-27T23:39:13.557Z,1.40
2018-04-27T23:41:43.585Z,1.40
2018-04-27T23:44:13.950Z,1.20
2018-04-27T23:46:44.061Z,1.40
2018-04-27T23:49:14.191Z,1.47
2018-04-27T23:51:44.452Z,1.50
2018-04-27T23:54:14.676Z,1.50
2018-04-27T23:56:45.700Z,1.60
2018-04-27T23:59:18.623Z,1.40
